createdAt,value
2022-08-29T00:00:49.570Z,95.70
2022-08-29T00:03:18.130Z,95.80
2022-08-29T00:05:49.939Z,95.90
2022-08-29T00:08:17.375Z,96.10
2022-08-29T00:10:44.146Z,96.40
2022-08-29T00:13:11.438Z,96.50
2022-08-29T00:15:41.663Z,96.80
2022-08-29T00:18:13.562Z,97.00
2022-08-29T00:20:40.572Z,97.20
2022-08-29T00:23:07.536Z,97.30
2022-08-29T00:25:34.668Z,97.60
2022-08-29T00:28:02.236Z,98.00
2022-08-29T00:30:30.014Z,98.40
2022-08-29T00:32:57.187Z,98.70
2022-08-29T00:35:27.960Z,99.00
2022-08-29T00:37:55.704Z,99.70
2022-08-29T00:40:27.427Z,99.70
2022-08-29T00:42:54.755Z,99.90
2022-08-29T00:45:22.352Z,99.90
2022-08-29T00:48:01.180Z,99.90
2022-08-29T00:50:35.671Z,99.90
2022-08-29T00:53:04.493Z,99.90
2022-08-29T00:55:34.513Z,99.90
2022-08-29T00:58:11.768Z,99.90
2022-08-29T01:00:41.736Z,99.90
2022-08-29T01:03:09.021Z,99.90
2022-08-29T01:05:37.357Z,99.90
2022-08-29T01:08:06.227Z,99.90
2022-08-29T01:10:53.824Z,99.90
2022-08-29T01:13:24.647Z,99.90
2022-08-29T01:15:51.588Z,99.90
2022-08-29T01:18:19.089Z,99.90
2022-08-29T01:21:16.238Z,99.90
2022-08-29T01:24:15.203Z,99.90
2022-08-29T01:26:47.090Z,99.90
2022-08-29T01:29:15.487Z,99.90
2022-08-29T01:31:57.352Z,99.90
2022-08-29T01:34:28.364Z,99.90
2022-08-29T01:37:05.823Z,99.90
2022-08-29T01:39:38.201Z,99.90
2022-08-29T01:42:12.774Z,99.90
2022-08-29T01:44:40.482Z,99.90
2022-08-29T01:47:08.950Z,99.90
2022-08-29T01:49:37.859Z,99.90
2022-08-29T01:52:08.235Z,99.90
2022-08-29T01:54:35.368Z,99.90
2022-08-29T01:57:02.867Z,99.90
2022-08-29T01:59:31.648Z,99.90
2022-08-29T02:02:11.321Z,99.90
2022-08-29T02:04:40.447Z,99.90
2022-08-29T02:07:12.047Z,99.90
2022-08-29T02:09:40.316Z,99.90
2022-08-29T02:12:14.121Z,99.90
2022-08-29T02:14:41.442Z,99.90
2022-08-29T02:17:08.792Z,99.90
2022-08-29T02:19:37.138Z,99.90
2022-08-29T02:22:05.308Z,99.90
2022-08-29T02:24:32.186Z,99.90
2022-08-29T02:26:58.969Z,99.90
2022-08-29T02:29:34.255Z,99.90
2022-08-29T02:32:09.715Z,99.90
2022-08-29T02:34:36.727Z,99.90
2022-08-29T02:37:04.712Z,99.90
2022-08-29T02:39:33.382Z,99.90
2022-08-29T02:42:00.240Z,99.90
2022-08-29T02:44:26.867Z,99.90
2022-08-29T02:46:53.737Z,99.90
2022-08-29T02:49:20.939Z,99.90
2022-08-29T02:51:48.499Z,99.90
2022-08-29T02:54:15.425Z,99.90
2022-08-29T02:56:42.226Z,99.90
2022-08-29T02:59:09.008Z,99.90
2022-08-29T03:01:38.553Z,99.90
2022-08-29T03:04:05.828Z,99.90
2022-08-29T03:06:33.107Z,99.90
2022-08-29T03:09:00.467Z,99.90
2022-08-29T03:11:28.679Z,99.90
2022-08-29T03:13:57.837Z,99.90
2022-08-29T03:16:25.996Z,99.90
2022-08-29T03:18:52.969Z,99.90
2022-08-29T03:21:24.366Z,99.90
2022-08-29T03:23:51.815Z,99.90
2022-08-29T03:26:21.117Z,99.90
2022-08-29T03:28:48.314Z,99.90
2022-08-29T03:31:15.370Z,99.90
2022-08-29T03:33:42.275Z,99.90
2022-08-29T03:36:11.163Z,99.90
2022-08-29T03:38:42.572Z,99.90
2022-08-29T03:41:09.842Z,99.90
2022-08-29T03:43:36.750Z,99.90
2022-08-29T03:46:03.478Z,99.90
2022-08-29T03:48:30.352Z,99.90
2022-08-29T03:50:57.007Z,99.90
2022-08-29T03:53:24.091Z,99.90
2022-08-29T03:55:51.011Z,99.90
2022-08-29T03:58:17.965Z,99.90
2022-08-29T04:00:46.800Z,99.90
2022-08-29T04:03:13.689Z,99.90
2022-08-29T04:05:41.123Z,99.90
2022-08-29T04:08:09.370Z,99.90
2022-08-29T04:10:38.654Z,99.90
2022-08-29T04:13:07.241Z,99.90
2022-08-29T04:15:35.803Z,99.90
2022-08-29T04:18:06.786Z,99.90
2022-08-29T04:20:37.448Z,99.90
2022-08-29T04:23:06.007Z,99.90
2022-08-29T04:25:37.346Z,99.90
2022-08-29T04:28:06.177Z,99.90
2022-08-29T04:30:33.417Z,99.90
2022-08-29T04:33:00.275Z,99.90
2022-08-29T04:35:27.042Z,99.90
2022-08-29T04:37:54.012Z,99.90
2022-08-29T04:40:21.916Z,99.90
2022-08-29T04:42:49.431Z,99.90
2022-08-29T04:45:20.286Z,99.90
2022-08-29T04:47:47.055Z,99.90
2022-08-29T04:50:18.168Z,99.90
2022-08-29T04:52:45.539Z,99.90
2022-08-29T04:55:13.194Z,99.90
2022-08-29T04:57:40.648Z,99.90
2022-08-29T05:00:12.934Z,99.90
2022-08-29T05:02:41.570Z,99.90
2022-08-29T05:05:10.400Z,99.90
2022-08-29T05:07:38.222Z,99.90
2022-08-29T05:10:13.032Z,99.90
2022-08-29T05:12:40.924Z,99.90
2022-08-29T05:15:08.543Z,99.90
2022-08-29T05:17:35.531Z,99.90
2022-08-29T05:20:04.702Z,99.90
2022-08-29T05:22:31.432Z,99.90
2022-08-29T05:24:58.267Z,99.90
2022-08-29T05:27:27.443Z,99.90
2022-08-29T05:29:55.011Z,99.90
2022-08-29T05:32:21.904Z,99.90
2022-08-29T05:34:49.443Z,99.90
2022-08-29T05:37:19.875Z,99.90
2022-08-29T05:39:47.434Z,99.90
2022-08-29T05:42:16.989Z,99.90
2022-08-29T05:44:44.352Z,99.90
2022-08-29T05:47:13.746Z,99.90
2022-08-29T05:49:42.966Z,99.90
2022-08-29T05:52:11.515Z,99.90
2022-08-29T05:54:40.126Z,99.90
2022-08-29T05:57:15.351Z,99.90
2022-08-29T05:59:45.482Z,99.90
2022-08-29T06:02:13.235Z,99.90
2022-08-29T06:04:40.409Z,99.90
2022-08-29T06:07:08.440Z,99.90
2022-08-29T06:09:37.155Z,99.90
2022-08-29T06:12:04.668Z,99.90
2022-08-29T06:14:31.950Z,99.90
2022-08-29T06:16:59.025Z,99.90
2022-08-29T06:19:25.954Z,99.90
2022-08-29T06:21:55.364Z,99.90
2022-08-29T06:24:22.987Z,99.90
2022-08-29T06:26:49.680Z,99.90
2022-08-29T06:29:16.564Z,99.90
2022-08-29T06:31:43.303Z,99.90
2022-08-29T06:34:10.125Z,99.90
2022-08-29T06:36:36.901Z,99.90
2022-08-29T06:39:07.111Z,99.90
2022-08-29T06:41:34.868Z,99.90
2022-08-29T06:44:02.456Z,99.90
2022-08-29T06:46:31.760Z,99.90
2022-08-29T06:49:00.504Z,99.90
2022-08-29T06:51:27.592Z,99.90
2022-08-29T06:53:54.413Z,99.90
2022-08-29T06:56:21.293Z,99.90
2022-08-29T06:58:48.372Z,99.90
2022-08-29T07:01:17.719Z,99.90
2022-08-29T07:03:44.897Z,99.90
2022-08-29T07:06:13.723Z,99.90
2022-08-29T07:08:54.733Z,99.90
2022-08-29T07:11:27.519Z,99.90
2022-08-29T07:13:58.108Z,99.90
2022-08-29T07:16:26.176Z,99.90
2022-08-29T07:18:53.714Z,99.90
2022-08-29T07:21:22.825Z,99.90
2022-08-29T07:23:50.732Z,99.90
2022-08-29T07:26:29.901Z,99.90
2022-08-29T07:29:00.036Z,99.90
2022-08-29T07:31:31.077Z,99.90
2022-08-29T07:34:02.288Z,99.90
2022-08-29T07:36:31.015Z,99.90
2022-08-29T07:38:57.784Z,99.90
2022-08-29T07:41:24.827Z,99.90
2022-08-29T07:43:51.816Z,99.90
2022-08-29T07:46:20.222Z,99.90
2022-08-29T07:48:48.090Z,99.90
2022-08-29T07:51:18.349Z,99.80
2022-08-29T07:53:46.531Z,99.60
2022-08-29T07:56:17.141Z,98.80
2022-08-29T07:58:44.088Z,98.30
2022-08-29T08:01:12.549Z,98.00
2022-08-29T08:03:48.155Z,98.00
2022-08-29T08:06:14.955Z,97.10
2022-08-29T08:08:41.883Z,96.60
2022-08-29T08:11:09.309Z,96.40
2022-08-29T08:13:37.053Z,96.40
2022-08-29T08:16:13.338Z,95.90
2022-08-29T08:18:43.461Z,95.80
2022-08-29T08:21:11.091Z,95.20
2022-08-29T08:23:38.791Z,95.00
2022-08-29T08:26:08.387Z,94.70
2022-08-29T08:28:36.101Z,94.00
2022-08-29T08:31:06.681Z,93.50
2022-08-29T08:33:35.605Z,93.30
2022-08-29T08:36:04.430Z,92.60
2022-08-29T08:38:31.690Z,92.30
2022-08-29T08:41:13.410Z,92.20
2022-08-29T08:43:49.597Z,91.70
2022-08-29T08:46:17.999Z,91.90
2022-08-29T08:48:47.329Z,91.50
2022-08-29T08:51:21.155Z,91.40
2022-08-29T08:53:52.067Z,90.90
2022-08-29T08:56:42.056Z,90.90
2022-08-29T08:59:47.628Z,90.90
2022-08-29T09:02:20.018Z,91.00
2022-08-29T09:05:27.893Z,90.30
2022-08-29T09:08:16.046Z,89.30
2022-08-29T09:10:58.743Z,88.80
2022-08-29T09:14:01.995Z,88.30
2022-08-29T09:16:37.415Z,86.90
2022-08-29T09:19:09.376Z,86.10
2022-08-29T09:21:53.880Z,85.80
2022-08-29T09:24:46.908Z,83.90
2022-08-29T09:27:22.647Z,82.30
2022-08-29T09:30:15.187Z,80.20
2022-08-29T09:33:12.376Z,79.70
2022-08-29T09:35:51.865Z,78.80
2022-08-29T09:38:18.553Z,78.20
2022-08-29T09:40:51.300Z,78.20
2022-08-29T09:43:23.704Z,78.40
2022-08-29T09:46:20.850Z,78.00
2022-08-29T09:49:00.081Z,77.40
2022-08-29T09:51:48.830Z,76.90
2022-08-29T09:54:27.967Z,75.50
2022-08-29T09:56:56.593Z,74.00
2022-08-29T09:59:28.290Z,72.20
2022-08-29T10:02:22.439Z,71.00
2022-08-29T10:04:53.509Z,69.50
2022-08-29T10:07:30.632Z,69.60
2022-08-29T10:10:18.015Z,69.00
2022-08-29T10:12:57.385Z,69.10
2022-08-29T10:15:49.924Z,68.30
2022-08-29T10:18:27.284Z,68.40
2022-08-29T10:21:02.341Z,67.70
2022-08-29T10:23:44.156Z,68.20
2022-08-29T10:26:23.348Z,67.90
2022-08-29T10:29:13.052Z,66.60
2022-08-29T10:31:59.542Z,66.30
2022-08-29T10:34:44.752Z,66.40
2022-08-29T10:37:19.003Z,65.50
2022-08-29T10:40:30.673Z,65.10
2022-08-29T10:43:27.256Z,64.50
2022-08-29T10:45:59.893Z,63.00
2022-08-29T10:48:39.333Z,60.90
2022-08-29T10:51:18.265Z,59.40
2022-08-29T10:53:51.716Z,59.60
2022-08-29T10:56:28.328Z,60.00
2022-08-29T10:59:03.972Z,59.50
2022-08-29T11:01:34.374Z,59.30
2022-08-29T11:04:06.234Z,58.10
2022-08-29T11:06:41.040Z,57.90
2022-08-29T11:09:14.760Z,58.60
2022-08-29T11:12:11.048Z,57.10
2022-08-29T11:15:09.810Z,57.60
2022-08-29T11:17:41.453Z,56.20
2022-08-29T11:20:19.572Z,56.40
2022-08-29T11:23:01.897Z,56.00
2022-08-29T11:25:29.938Z,55.60
2022-08-29T11:28:09.178Z,55.90
2022-08-29T11:30:59.436Z,55.50
2022-08-29T11:33:45.384Z,55.50
2022-08-29T11:36:29.148Z,56.00
2022-08-29T11:39:33.354Z,55.80
2022-08-29T11:42:06.270Z,55.10
2022-08-29T11:44:40.988Z,55.10
2022-08-29T11:47:40.878Z,54.50
2022-08-29T11:50:17.081Z,54.10
2022-08-29T11:53:18.044Z,53.70
2022-08-29T11:56:04.827Z,53.60
2022-08-29T11:58:32.741Z,53.70
2022-08-29T12:01:00.104Z,53.90
2022-08-29T12:03:36.972Z,54.50
2022-08-29T12:06:22.142Z,54.50
2022-08-29T12:09:05.301Z,54.70
2022-08-29T12:12:01.197Z,55.00
2022-08-29T12:14:37.451Z,54.90
2022-08-29T12:17:16.417Z,54.30
2022-08-29T12:19:59.140Z,54.50
2022-08-29T12:22:54.266Z,55.30
2022-08-29T12:25:45.109Z,53.90
2022-08-29T12:28:21.027Z,53.40
2022-08-29T12:30:49.919Z,52.60
2022-08-29T12:33:36.672Z,53.00
2022-08-29T12:36:25.269Z,52.60
2022-08-29T12:39:23.546Z,52.80
2022-08-29T12:42:16.029Z,52.60
2022-08-29T12:44:49.659Z,52.60
2022-08-29T12:47:46.814Z,51.80
2022-08-29T12:50:21.042Z,51.00
2022-08-29T12:53:07.828Z,50.80
2022-08-29T12:55:40.427Z,50.40
2022-08-29T12:58:09.327Z,50.70
2022-08-29T13:00:36.590Z,49.70
2022-08-29T13:03:09.443Z,49.90
2022-08-29T13:05:41.952Z,50.00
2022-08-29T13:08:29.549Z,49.80
2022-08-29T13:11:06.590Z,49.90
2022-08-29T13:13:34.133Z,49.80
2022-08-29T13:16:03.959Z,49.40
2022-08-29T13:18:33.779Z,49.00
2022-08-29T13:21:12.620Z,49.00
2022-08-29T13:23:45.835Z,48.60
2022-08-29T13:26:13.991Z,48.80
2022-08-29T13:28:50.997Z,48.90
2022-08-29T13:31:18.603Z,48.80
2022-08-29T13:33:53.773Z,48.20
2022-08-29T13:36:32.828Z,47.90
2022-08-29T13:39:17.918Z,47.60
2022-08-29T13:42:03.086Z,48.00
2022-08-29T13:44:44.483Z,48.00
2022-08-29T13:47:18.336Z,48.60
2022-08-29T13:49:45.326Z,49.70
2022-08-29T13:52:12.808Z,49.70
2022-08-29T13:54:43.082Z,49.10
2022-08-29T13:57:15.131Z,49.00
2022-08-29T13:59:41.995Z,48.50
2022-08-29T14:02:10.537Z,48.60
2022-08-29T14:04:40.044Z,48.90
2022-08-29T14:07:20.012Z,48.70
2022-08-29T14:09:47.605Z,48.10
2022-08-29T14:12:15.314Z,47.50
2022-08-29T14:14:43.672Z,47.70
2022-08-29T14:17:18.046Z,47.70
2022-08-29T14:19:47.003Z,47.60
2022-08-29T14:22:14.848Z,48.10
2022-08-29T14:24:42.164Z,48.10
2022-08-29T14:27:09.659Z,48.10
2022-08-29T14:29:36.999Z,48.00
2022-08-29T14:32:04.516Z,48.30
2022-08-29T14:34:32.360Z,48.00
2022-08-29T14:37:00.793Z,48.50
2022-08-29T14:39:27.919Z,47.90
2022-08-29T14:41:55.246Z,48.10
2022-08-29T14:44:22.850Z,48.20
2022-08-29T14:46:51.281Z,48.00
2022-08-29T14:49:18.900Z,47.60
2022-08-29T14:51:45.765Z,47.60
2022-08-29T14:54:13.020Z,47.00
2022-08-29T14:56:47.969Z,46.80
2022-08-29T14:59:16.367Z,46.70
2022-08-29T15:01:43.265Z,46.80
2022-08-29T15:04:11.084Z,46.50
2022-08-29T15:06:41.682Z,46.10
2022-08-29T15:09:08.660Z,46.10
2022-08-29T15:11:35.620Z,46.20
2022-08-29T15:14:04.587Z,46.50
2022-08-29T15:16:32.682Z,46.60
2022-08-29T15:19:37.520Z,46.30
2022-08-29T15:21:49.904Z,46.70
2022-08-29T15:24:16.739Z,47.10
2022-08-29T15:26:44.822Z,47.30
2022-08-29T15:29:11.705Z,48.10
2022-08-29T15:31:38.595Z,48.50
2022-08-29T15:34:05.924Z,48.70
2022-08-29T15:36:33.829Z,48.70
2022-08-29T15:39:04.788Z,49.20
2022-08-29T15:41:33.222Z,49.30
2022-08-29T15:44:01.052Z,49.80
2022-08-29T15:46:28.002Z,49.30
2022-08-29T15:48:55.411Z,48.70
2022-08-29T15:51:22.297Z,48.70
2022-08-29T15:53:49.173Z,48.90
2022-08-29T15:56:16.070Z,48.80
2022-08-29T15:58:43.884Z,49.00
2022-08-29T16:01:12.339Z,49.20
2022-08-29T16:03:39.370Z,49.10
2022-08-29T16:06:06.354Z,49.10
2022-08-29T16:08:33.591Z,49.10
2022-08-29T16:11:00.943Z,48.60
2022-08-29T16:13:27.684Z,48.60
2022-08-29T16:15:54.787Z,49.50
2022-08-29T16:18:21.884Z,49.70
2022-08-29T16:20:48.717Z,49.50
2022-08-29T16:23:17.105Z,49.80
2022-08-29T16:25:44.894Z,49.90
2022-08-29T16:28:11.900Z,50.30
2022-08-29T16:30:44.242Z,50.50
2022-08-29T16:33:13.499Z,50.90
2022-08-29T16:35:40.297Z,50.90
2022-08-29T16:38:07.179Z,51.20
2022-08-29T16:40:34.178Z,51.20
2022-08-29T16:43:02.594Z,51.70
2022-08-29T16:45:29.936Z,52.10
2022-08-29T16:47:57.662Z,52.70
2022-08-29T16:50:25.535Z,52.80
2022-08-29T16:52:52.550Z,53.20
2022-08-29T16:55:19.679Z,53.10
2022-08-29T16:58:06.619Z,54.00
2022-08-29T17:00:33.798Z,54.60
2022-08-29T17:03:00.788Z,54.70
2022-08-29T17:05:27.708Z,55.30
2022-08-29T17:07:54.422Z,55.80
2022-08-29T17:10:21.231Z,56.30
2022-08-29T17:12:47.973Z,56.50
2022-08-29T17:15:14.684Z,55.90
2022-08-29T17:17:41.565Z,56.10
2022-08-29T17:20:08.955Z,56.50
2022-08-29T17:22:35.740Z,56.60
2022-08-29T17:25:02.650Z,57.50
2022-08-29T17:27:30.249Z,57.90
2022-08-29T17:29:57.171Z,58.10
2022-08-29T17:32:24.015Z,58.50
2022-08-29T17:34:50.800Z,58.90
2022-08-29T17:37:17.555Z,59.30
2022-08-29T17:39:44.310Z,59.40
2022-08-29T17:42:11.792Z,59.90
2022-08-29T17:44:41.063Z,60.00
2022-08-29T17:47:07.942Z,60.20
2022-08-29T17:49:34.669Z,60.80
2022-08-29T17:52:01.567Z,61.00
2022-08-29T17:54:32.128Z,61.10
2022-08-29T17:57:00.226Z,61.50
2022-08-29T17:59:32.628Z,61.60
2022-08-29T18:01:59.857Z,62.10
2022-08-29T18:04:27.034Z,62.30
2022-08-29T18:06:55.829Z,62.60
2022-08-29T18:09:23.335Z,62.80
2022-08-29T18:11:52.647Z,63.10
2022-08-29T18:14:22.591Z,63.40
2022-08-29T18:16:50.628Z,63.40
2022-08-29T18:19:17.955Z,63.70
2022-08-29T18:21:45.285Z,64.50
2022-08-29T18:24:14.798Z,65.00
2022-08-29T18:26:43.339Z,65.20
2022-08-29T18:29:10.478Z,66.20
2022-08-29T18:31:37.384Z,66.30
2022-08-29T18:34:04.356Z,66.00
2022-08-29T18:36:33.266Z,66.30
2022-08-29T18:39:01.491Z,66.40
2022-08-29T18:41:28.272Z,66.70
2022-08-29T18:43:55.350Z,66.60
2022-08-29T18:46:22.250Z,66.90
2022-08-29T18:48:49.102Z,67.60
2022-08-29T18:51:15.935Z,68.60
2022-08-29T18:53:42.801Z,68.80
2022-08-29T18:56:10.014Z,69.30
2022-08-29T18:58:36.859Z,69.80
2022-08-29T19:01:32.197Z,69.80
2022-08-29T19:04:02.263Z,70.50
2022-08-29T19:06:29.542Z,70.40
2022-08-29T19:08:57.255Z,70.60
2022-08-29T19:11:24.648Z,70.20
2022-08-29T19:13:52.374Z,70.50
2022-08-29T19:16:20.910Z,70.20
2022-08-29T19:18:47.921Z,70.40
2022-08-29T19:21:14.803Z,70.60
2022-08-29T19:23:45.498Z,70.60
2022-08-29T19:26:15.500Z,70.70
2022-08-29T19:28:43.085Z,72.10
2022-08-29T19:31:10.756Z,72.40
2022-08-29T19:33:38.055Z,73.00
2022-08-29T19:36:08.318Z,73.40
2022-08-29T19:38:35.526Z,73.80
2022-08-29T19:41:03.860Z,74.20
2022-08-29T19:43:32.773Z,74.50
2022-08-29T19:46:01.446Z,74.40
2022-08-29T19:48:28.805Z,73.50
2022-08-29T19:50:56.836Z,74.10
2022-08-29T19:53:26.254Z,74.90
2022-08-29T19:55:55.541Z,75.10
2022-08-29T19:58:23.656Z,75.10
2022-08-29T20:01:00.338Z,74.80
2022-08-29T20:03:28.806Z,74.90
2022-08-29T20:05:55.985Z,75.40
2022-08-29T20:08:23.324Z,75.30
2022-08-29T20:10:51.225Z,75.60
2022-08-29T20:13:18.912Z,76.00
2022-08-29T20:15:45.855Z,76.20
2022-08-29T20:18:13.041Z,76.30
2022-08-29T20:20:40.271Z,76.50
2022-08-29T20:23:07.813Z,76.70
2022-08-29T20:25:35.931Z,76.90
2022-08-29T20:28:04.313Z,76.40
2022-08-29T20:30:33.106Z,76.90
2022-08-29T20:33:00.414Z,77.00
2022-08-29T20:35:46.004Z,76.40
2022-08-29T20:38:12.903Z,76.40
2022-08-29T20:40:49.776Z,77.60
2022-08-29T20:43:17.963Z,77.60
2022-08-29T20:45:44.920Z,77.40
2022-08-29T20:48:12.884Z,77.90
2022-08-29T20:50:40.239Z,78.50
2022-08-29T20:53:07.687Z,78.80
2022-08-29T20:55:34.529Z,79.70
2022-08-29T20:58:01.587Z,80.20
2022-08-29T21:00:28.706Z,81.30
2022-08-29T21:03:14.418Z,81.60
2022-08-29T21:05:42.252Z,82.30
2022-08-29T21:08:18.800Z,82.90
2022-08-29T21:10:46.837Z,83.30
2022-08-29T21:13:15.167Z,83.70
2022-08-29T21:15:42.946Z,84.00
2022-08-29T21:18:12.375Z,84.90
2022-08-29T21:20:44.850Z,85.60
2022-08-29T21:23:21.666Z,86.60
2022-08-29T21:25:53.997Z,86.80
2022-08-29T21:28:21.398Z,87.60
2022-08-29T21:30:49.263Z,88.40
2022-08-29T21:33:16.257Z,88.50
2022-08-29T21:35:43.168Z,88.10
2022-08-29T21:38:10.463Z,88.20
2022-08-29T21:40:50.021Z,88.60
2022-08-29T21:43:19.427Z,89.20
2022-08-29T21:45:47.399Z,89.40
2022-08-29T21:48:14.145Z,89.70
2022-08-29T21:50:41.393Z,90.10
2022-08-29T21:53:10.190Z,90.80
2022-08-29T21:55:37.036Z,90.70
2022-08-29T21:58:04.224Z,91.00
2022-08-29T22:00:42.053Z,90.90
2022-08-29T22:03:12.157Z,91.10
2022-08-29T22:05:43.667Z,91.40
2022-08-29T22:08:14.136Z,91.50
2022-08-29T22:10:42.448Z,91.60
2022-08-29T22:13:09.871Z,92.20
2022-08-29T22:15:56.079Z,92.60
2022-08-29T22:18:23.421Z,92.40
2022-08-29T22:20:51.160Z,93.10
2022-08-29T22:23:24.397Z,93.20
2022-08-29T22:25:51.255Z,93.30
2022-08-29T22:28:18.604Z,93.50
2022-08-29T22:30:45.471Z,93.70
2022-08-29T22:33:16.297Z,93.20
2022-08-29T22:35:43.498Z,93.10
2022-08-29T22:38:10.762Z,93.60
2022-08-29T22:40:37.700Z,93.60
2022-08-29T22:43:04.590Z,93.70
2022-08-29T22:45:32.318Z,93.80
2022-08-29T22:47:59.954Z,94.10
2022-08-29T22:50:27.488Z,94.50
2022-08-29T22:52:59.250Z,94.70
2022-08-29T22:57:52.085Z,96.30
2022-08-29T23:00:21.185Z,96.90
2022-08-29T23:02:48.386Z,97.50
2022-08-29T23:05:16.174Z,98.20
2022-08-29T23:07:43.034Z,98.70
2022-08-29T23:10:11.295Z,99.40
2022-08-29T23:12:38.621Z,99.90
2022-08-29T23:15:09.583Z,99.90
2022-08-29T23:17:36.415Z,99.90
2022-08-29T23:20:05.980Z,99.90
2022-08-29T23:22:33.496Z,99.90
2022-08-29T23:25:00.408Z,99.90
2022-08-29T23:27:28.545Z,99.90
2022-08-29T23:29:55.632Z,99.90
2022-08-29T23:32:22.391Z,99.90
2022-08-29T23:34:49.095Z,99.90
2022-08-29T23:37:16.045Z,99.90
2022-08-29T23:39:42.944Z,99.90
2022-08-29T23:42:11.051Z,99.90
2022-08-29T23:44:37.950Z,99.90
2022-08-29T23:47:05.005Z,99.90
2022-08-29T23:49:31.730Z,99.90
2022-08-29T23:51:59.270Z,99.90
2022-08-29T23:54:26.436Z,99.90
2022-08-29T23:56:53.417Z,99.90
2022-08-29T23:59:38.861Z,99.90
